sensor_id;sensor_type;location;lat;lon;timestamp;P1;durP1;ratioP1;P2;durP2;ratioP2
8060;SDS011;4073;42.626;25.386;2023-05-07T00:00:20;7.77;;;5.97;;
8060;SDS011;4073;42.626;25.386;2023-05-07T00:02:46;7.47;;;5.43;;
8060;SDS011;4073;42.626;25.386;2023-05-07T00:05:12;4.97;;;4.57;;
8060;SDS011;4073;42.626;25.386;2023-05-07T00:07:37;8.83;;;4.90;;
8060;SDS011;4073;42.626;25.386;2023-05-07T00:10:03;6.43;;;5.23;;
8060;SDS011;4073;42.626;25.386;2023-05-07T00:12:31;6.23;;;4.90;;
8060;SDS011;4073;42.626;25.386;2023-05-07T00:14:58;5.43;;;4.93;;
8060;SDS011;4073;42.626;25.386;2023-05-07T00:17:24;6.67;;;4.83;;
8060;SDS011;4073;42.626;25.386;2023-05-07T00:19:49;8.17;;;4.90;;
8060;SDS011;4073;42.626;25.386;2023-05-07T00:22:15;7.83;;;5.23;;
8060;SDS011;4073;42.626;25.386;2023-05-07T00:24:40;7.83;;;5.50;;
8060;SDS011;4073;42.626;25.386;2023-05-07T00:27:05;5.80;;;4.73;;
8060;SDS011;4073;42.626;25.386;2023-05-07T00:29:31;7.53;;;5.30;;
8060;SDS011;4073;42.626;25.386;2023-05-07T00:31:56;8.77;;;5.63;;
8060;SDS011;4073;42.626;25.386;2023-05-07T00:34:22;5.87;;;5.27;;
8060;SDS011;4073;42.626;25.386;2023-05-07T00:36:47;6.37;;;5.77;;
8060;SDS011;4073;42.626;25.386;2023-05-07T00:39:13;8.03;;;5.10;;
8060;SDS011;4073;42.626;25.386;2023-05-07T00:41:38;7.57;;;5.63;;
8060;SDS011;4073;42.626;25.386;2023-05-07T00:44:04;6.97;;;5.47;;
8060;SDS011;4073;42.626;25.386;2023-05-07T00:46:30;8.27;;;5.40;;
8060;SDS011;4073;42.626;25.386;2023-05-07T00:48:55;7.63;;;5.93;;
8060;SDS011;4073;42.626;25.386;2023-05-07T00:51:22;7.57;;;5.93;;
8060;SDS011;4073;42.626;25.386;2023-05-07T00:53:57;8.67;;;6.83;;
8060;SDS011;4073;42.626;25.386;2023-05-07T00:56:23;5.57;;;5.07;;
8060;SDS011;4073;42.626;25.386;2023-05-07T00:58:49;6.00;;;5.40;;
8060;SDS011;4073;42.626;25.386;2023-05-07T01:01:14;8.00;;;5.97;;
8060;SDS011;4073;42.626;25.386;2023-05-07T01:03:41;7.70;;;5.67;;
8060;SDS011;4073;42.626;25.386;2023-05-07T01:06:07;10.77;;;5.93;;
8060;SDS011;4073;42.626;25.386;2023-05-07T01:08:37;7.37;;;5.60;;
8060;SDS011;4073;42.626;25.386;2023-05-07T01:11:04;7.93;;;5.50;;
8060;SDS011;4073;42.626;25.386;2023-05-07T01:13:31;6.43;;;5.20;;
8060;SDS011;4073;42.626;25.386;2023-05-07T01:15:58;5.07;;;4.57;;
8060;SDS011;4073;42.626;25.386;2023-05-07T01:18:24;5.77;;;5.27;;
8060;SDS011;4073;42.626;25.386;2023-05-07T01:20:51;7.87;;;5.23;;
8060;SDS011;4073;42.626;25.386;2023-05-07T01:23:16;6.63;;;5.20;;
8060;SDS011;4073;42.626;25.386;2023-05-07T01:25:43;8.00;;;5.43;;
8060;SDS011;4073;42.626;25.386;2023-05-07T01:28:08;6.87;;;5.63;;
8060;SDS011;4073;42.626;25.386;2023-05-07T01:30:34;6.33;;;5.73;;
8060;SDS011;4073;42.626;25.386;2023-05-07T01:33:04;6.00;;;5.27;;
8060;SDS011;4073;42.626;25.386;2023-05-07T01:35:37;6.20;;;5.17;;
8060;SDS011;4073;42.626;25.386;2023-05-07T01:38:06;8.73;;;5.30;;
8060;SDS011;4073;42.626;25.386;2023-05-07T01:40:33;7.47;;;5.87;;
8060;SDS011;4073;42.626;25.386;2023-05-07T01:42:59;5.70;;;5.20;;
8060;SDS011;4073;42.626;25.386;2023-05-07T01:45:25;5.57;;;5.07;;
8060;SDS011;4073;42.626;25.386;2023-05-07T01:47:51;8.57;;;5.70;;
8060;SDS011;4073;42.626;25.386;2023-05-07T01:50:18;5.40;;;4.90;;
8060;SDS011;4073;42.626;25.386;2023-05-07T01:52:44;6.83;;;6.03;;
8060;SDS011;4073;42.626;25.386;2023-05-07T01:55:09;6.50;;;5.90;;
8060;SDS011;4073;42.626;25.386;2023-05-07T01:57:36;9.07;;;6.40;;
8060;SDS011;4073;42.626;25.386;2023-05-07T02:00:01;8.40;;;6.23;;
8060;SDS011;4073;42.626;25.386;2023-05-07T02:02:31;6.97;;;6.37;;
8060;SDS011;4073;42.626;25.386;2023-05-07T02:04:56;7.10;;;6.37;;
8060;SDS011;4073;42.626;25.386;2023-05-07T02:07:22;7.23;;;6.53;;
8060;SDS011;4073;42.626;25.386;2023-05-07T02:09:47;6.73;;;6.00;;
8060;SDS011;4073;42.626;25.386;2023-05-07T02:12:13;6.57;;;5.97;;
8060;SDS011;4073;42.626;25.386;2023-05-07T02:14:38;7.10;;;6.40;;
8060;SDS011;4073;42.626;25.386;2023-05-07T02:17:03;7.33;;;6.63;;
8060;SDS011;4073;42.626;25.386;2023-05-07T02:19:29;7.93;;;7.13;;
8060;SDS011;4073;42.626;25.386;2023-05-07T02:21:54;8.67;;;7.77;;
8060;SDS011;4073;42.626;25.386;2023-05-07T02:24:20;7.97;;;7.17;;
8060;SDS011;4073;42.626;25.386;2023-05-07T02:26:46;7.33;;;6.57;;
8060;SDS011;4073;42.626;25.386;2023-05-07T02:29:11;8.70;;;7.03;;
8060;SDS011;4073;42.626;25.386;2023-05-07T02:31:37;9.50;;;6.70;;
8060;SDS011;4073;42.626;25.386;2023-05-07T02:34:02;7.27;;;6.57;;
8060;SDS011;4073;42.626;25.386;2023-05-07T02:36:28;13.60;;;7.03;;
8060;SDS011;4073;42.626;25.386;2023-05-07T02:38:54;8.67;;;6.57;;
8060;SDS011;4073;42.626;25.386;2023-05-07T02:41:19;7.93;;;6.87;;
8060;SDS011;4073;42.626;25.386;2023-05-07T02:43:45;9.00;;;6.33;;
8060;SDS011;4073;42.626;25.386;2023-05-07T02:46:11;6.30;;;5.70;;
8060;SDS011;4073;42.626;25.386;2023-05-07T02:48:37;6.27;;;5.17;;
8060;SDS011;4073;42.626;25.386;2023-05-07T02:51:02;6.73;;;5.70;;
8060;SDS011;4073;42.626;25.386;2023-05-07T02:53:28;7.23;;;6.20;;
8060;SDS011;4073;42.626;25.386;2023-05-07T02:55:57;8.07;;;6.33;;
8060;SDS011;4073;42.626;25.386;2023-05-07T02:58:24;5.73;;;5.20;;
8060;SDS011;4073;42.626;25.386;2023-05-07T03:00:50;7.60;;;5.83;;
8060;SDS011;4073;42.626;25.386;2023-05-07T03:03:16;7.33;;;6.50;;
8060;SDS011;4073;42.626;25.386;2023-05-07T03:05:42;7.50;;;5.80;;
8060;SDS011;4073;42.626;25.386;2023-05-07T03:08:08;7.13;;;5.67;;
8060;SDS011;4073;42.626;25.386;2023-05-07T03:10:33;10.37;;;6.90;;
8060;SDS011;4073;42.626;25.386;2023-05-07T03:13:00;6.40;;;5.80;;
8060;SDS011;4073;42.626;25.386;2023-05-07T03:15:26;7.37;;;6.23;;
8060;SDS011;4073;42.626;25.386;2023-05-07T03:17:51;10.03;;;6.27;;
8060;SDS011;4073;42.626;25.386;2023-05-07T03:20:17;7.33;;;6.00;;
8060;SDS011;4073;42.626;25.386;2023-05-07T03:22:42;7.13;;;6.27;;
8060;SDS011;4073;42.626;25.386;2023-05-07T03:25:08;7.87;;;7.00;;
8060;SDS011;4073;42.626;25.386;2023-05-07T03:27:34;9.17;;;7.07;;
8060;SDS011;4073;42.626;25.386;2023-05-07T03:29:59;9.37;;;6.97;;
8060;SDS011;4073;42.626;25.386;2023-05-07T03:32:25;10.30;;;7.63;;
8060;SDS011;4073;42.626;25.386;2023-05-07T03:34:51;9.83;;;7.73;;
8060;SDS011;4073;42.626;25.386;2023-05-07T03:37:16;10.50;;;8.70;;
8060;SDS011;4073;42.626;25.386;2023-05-07T03:39:42;16.83;;;10.87;;
8060;SDS011;4073;42.626;25.386;2023-05-07T03:42:07;9.73;;;8.83;;
8060;SDS011;4073;42.626;25.386;2023-05-07T03:44:33;11.60;;;10.27;;
8060;SDS011;4073;42.626;25.386;2023-05-07T03:46:58;8.07;;;7.33;;
8060;SDS011;4073;42.626;25.386;2023-05-07T03:49:24;8.97;;;8.07;;
8060;SDS011;4073;42.626;25.386;2023-05-07T03:51:49;9.40;;;8.37;;
8060;SDS011;4073;42.626;25.386;2023-05-07T03:54:14;8.67;;;7.80;;
8060;SDS011;4073;42.626;25.386;2023-05-07T03:56:40;9.30;;;7.60;;
8060;SDS011;4073;42.626;25.386;2023-05-07T03:59:05;9.10;;;8.13;;
8060;SDS011;4073;42.626;25.386;2023-05-07T04:01:31;10.00;;;7.20;;
8060;SDS011;4073;42.626;25.386;2023-05-07T04:03:56;8.47;;;7.50;;
8060;SDS011;4073;42.626;25.386;2023-05-07T04:06:22;10.63;;;8.20;;
8060;SDS011;4073;42.626;25.386;2023-05-07T04:08:47;8.83;;;6.60;;
8060;SDS011;4073;42.626;25.386;2023-05-07T04:11:13;9.30;;;8.37;;
8060;SDS011;4073;42.626;25.386;2023-05-07T04:13:38;8.87;;;7.93;;
8060;SDS011;4073;42.626;25.386;2023-05-07T04:16:04;9.53;;;8.57;;
8060;SDS011;4073;42.626;25.386;2023-05-07T04:18:30;10.13;;;7.70;;
8060;SDS011;4073;42.626;25.386;2023-05-07T04:20:55;10.23;;;8.47;;
8060;SDS011;4073;42.626;25.386;2023-05-07T04:23:21;9.43;;;8.43;;
8060;SDS011;4073;42.626;25.386;2023-05-07T04:25:46;11.50;;;9.23;;
8060;SDS011;4073;42.626;25.386;2023-05-07T04:28:12;11.03;;;9.30;;
8060;SDS011;4073;42.626;25.386;2023-05-07T04:30:38;16.50;;;10.63;;
8060;SDS011;4073;42.626;25.386;2023-05-07T04:33:03;10.60;;;9.10;;
8060;SDS011;4073;42.626;25.386;2023-05-07T04:35:29;14.13;;;8.40;;
8060;SDS011;4073;42.626;25.386;2023-05-07T04:37:54;9.07;;;8.20;;
8060;SDS011;4073;42.626;25.386;2023-05-07T04:40:20;11.10;;;10.00;;
8060;SDS011;4073;42.626;25.386;2023-05-07T04:42:45;12.97;;;10.63;;
8060;SDS011;4073;42.626;25.386;2023-05-07T04:45:11;14.50;;;11.10;;
8060;SDS011;4073;42.626;25.386;2023-05-07T04:47:37;12.20;;;10.90;;
8060;SDS011;4073;42.626;25.386;2023-05-07T04:50:03;14.17;;;10.10;;
8060;SDS011;4073;42.626;25.386;2023-05-07T04:52:30;11.63;;;10.43;;
8060;SDS011;4073;42.626;25.386;2023-05-07T04:54:56;17.60;;;11.67;;
8060;SDS011;4073;42.626;25.386;2023-05-07T04:57:21;12.57;;;10.47;;
8060;SDS011;4073;42.626;25.386;2023-05-07T04:59:46;11.50;;;10.17;;
8060;SDS011;4073;42.626;25.386;2023-05-07T05:02:12;12.97;;;10.23;;
8060;SDS011;4073;42.626;25.386;2023-05-07T05:04:37;17.27;;;10.27;;
8060;SDS011;4073;42.626;25.386;2023-05-07T05:07:03;11.40;;;10.23;;
8060;SDS011;4073;42.626;25.386;2023-05-07T05:09:29;13.93;;;9.23;;
8060;SDS011;4073;42.626;25.386;2023-05-07T05:11:55;12.20;;;9.50;;
8060;SDS011;4073;42.626;25.386;2023-05-07T05:14:20;12.23;;;9.60;;
8060;SDS011;4073;42.626;25.386;2023-05-07T05:16:46;9.57;;;8.67;;
8060;SDS011;4073;42.626;25.386;2023-05-07T05:19:11;10.40;;;8.17;;
8060;SDS011;4073;42.626;25.386;2023-05-07T05:21:37;10.17;;;7.47;;
8060;SDS011;4073;42.626;25.386;2023-05-07T05:24:02;8.53;;;7.67;;
8060;SDS011;4073;42.626;25.386;2023-05-07T05:26:28;8.37;;;7.20;;
8060;SDS011;4073;42.626;25.386;2023-05-07T05:28:53;8.97;;;8.07;;
8060;SDS011;4073;42.626;25.386;2023-05-07T05:31:19;9.30;;;8.00;;
8060;SDS011;4073;42.626;25.386;2023-05-07T05:33:44;11.43;;;9.50;;
8060;SDS011;4073;42.626;25.386;2023-05-07T05:36:10;9.67;;;8.30;;
8060;SDS011;4073;42.626;25.386;2023-05-07T05:38:37;12.33;;;8.33;;
8060;SDS011;4073;42.626;25.386;2023-05-07T05:41:02;8.87;;;7.97;;
8060;SDS011;4073;42.626;25.386;2023-05-07T05:43:28;10.30;;;7.63;;
8060;SDS011;4073;42.626;25.386;2023-05-07T05:45:53;8.20;;;6.87;;
8060;SDS011;4073;42.626;25.386;2023-05-07T05:48:21;7.57;;;6.87;;
8060;SDS011;4073;42.626;25.386;2023-05-07T05:50:46;9.07;;;7.30;;
8060;SDS011;4073;42.626;25.386;2023-05-07T05:53:12;9.70;;;7.23;;
8060;SDS011;4073;42.626;25.386;2023-05-07T05:55:37;12.10;;;6.80;;
8060;SDS011;4073;42.626;25.386;2023-05-07T05:58:02;8.23;;;6.30;;
8060;SDS011;4073;42.626;25.386;2023-05-07T06:00:28;8.37;;;6.17;;
8060;SDS011;4073;42.626;25.386;2023-05-07T06:02:54;7.13;;;6.43;;
8060;SDS011;4073;42.626;25.386;2023-05-07T06:05:20;10.67;;;6.40;;
8060;SDS011;4073;42.626;25.386;2023-05-07T06:07:45;9.23;;;6.43;;
8060;SDS011;4073;42.626;25.386;2023-05-07T06:10:11;9.73;;;6.53;;
8060;SDS011;4073;42.626;25.386;2023-05-07T06:12:36;9.57;;;6.60;;
8060;SDS011;4073;42.626;25.386;2023-05-07T06:15:02;7.13;;;6.43;;
8060;SDS011;4073;42.626;25.386;2023-05-07T06:17:28;8.70;;;6.70;;
8060;SDS011;4073;42.626;25.386;2023-05-07T06:19:53;7.50;;;6.27;;
8060;SDS011;4073;42.626;25.386;2023-05-07T06:22:19;7.73;;;6.10;;
8060;SDS011;4073;42.626;25.386;2023-05-07T06:24:44;9.73;;;6.37;;
8060;SDS011;4073;42.626;25.386;2023-05-07T06:27:10;7.50;;;5.70;;
8060;SDS011;4073;42.626;25.386;2023-05-07T06:29:35;8.13;;;6.37;;
8060;SDS011;4073;42.626;25.386;2023-05-07T06:34:33;7.83;;;7.03;;
8060;SDS011;4073;42.626;25.386;2023-05-07T06:36:59;6.97;;;6.27;;
8060;SDS011;4073;42.626;25.386;2023-05-07T06:39:24;6.60;;;5.93;;
8060;SDS011;4073;42.626;25.386;2023-05-07T06:41:49;7.47;;;5.60;;
8060;SDS011;4073;42.626;25.386;2023-05-07T06:44:15;7.03;;;5.63;;
8060;SDS011;4073;42.626;25.386;2023-05-07T06:46:41;7.87;;;6.20;;
8060;SDS011;4073;42.626;25.386;2023-05-07T06:49:06;7.47;;;6.07;;
8060;SDS011;4073;42.626;25.386;2023-05-07T06:51:32;6.27;;;5.50;;
8060;SDS011;4073;42.626;25.386;2023-05-07T06:53:57;6.00;;;5.47;;
8060;SDS011;4073;42.626;25.386;2023-05-07T06:56:23;4.53;;;4.00;;
8060;SDS011;4073;42.626;25.386;2023-05-07T06:58:48;6.53;;;4.37;;
8060;SDS011;4073;42.626;25.386;2023-05-07T07:01:14;9.03;;;4.07;;
8060;SDS011;4073;42.626;25.386;2023-05-07T07:03:40;5.13;;;3.83;;
8060;SDS011;4073;42.626;25.386;2023-05-07T07:06:05;4.77;;;4.27;;
8060;SDS011;4073;42.626;25.386;2023-05-07T07:08:31;4.27;;;3.87;;
8060;SDS011;4073;42.626;25.386;2023-05-07T07:10:56;4.43;;;4.03;;
8060;SDS011;4073;42.626;25.386;2023-05-07T07:13:22;5.20;;;3.27;;
8060;SDS011;4073;42.626;25.386;2023-05-07T07:15:48;6.20;;;3.70;;
8060;SDS011;4073;42.626;25.386;2023-05-07T07:18:13;4.23;;;3.13;;
8060;SDS011;4073;42.626;25.386;2023-05-07T07:20:39;3.30;;;2.97;;
8060;SDS011;4073;42.626;25.386;2023-05-07T07:23:05;4.73;;;3.40;;
8060;SDS011;4073;42.626;25.386;2023-05-07T07:25:30;3.70;;;3.17;;
8060;SDS011;4073;42.626;25.386;2023-05-07T07:27:56;4.07;;;3.40;;
8060;SDS011;4073;42.626;25.386;2023-05-07T07:30:21;4.60;;;3.07;;
8060;SDS011;4073;42.626;25.386;2023-05-07T07:32:47;5.63;;;3.67;;
8060;SDS011;4073;42.626;25.386;2023-05-07T07:35:12;5.37;;;2.90;;
8060;SDS011;4073;42.626;25.386;2023-05-07T07:37:37;5.93;;;3.23;;
8060;SDS011;4073;42.626;25.386;2023-05-07T07:40:03;3.20;;;2.90;;
8060;SDS011;4073;42.626;25.386;2023-05-07T07:42:29;2.87;;;2.53;;
8060;SDS011;4073;42.626;25.386;2023-05-07T07:44:54;3.17;;;2.70;;
8060;SDS011;4073;42.626;25.386;2023-05-07T07:47:20;2.87;;;2.63;;
8060;SDS011;4073;42.626;25.386;2023-05-07T07:49:45;5.87;;;3.13;;
8060;SDS011;4073;42.626;25.386;2023-05-07T07:52:11;5.97;;;2.93;;
8060;SDS011;4073;42.626;25.386;2023-05-07T07:54:36;3.20;;;2.87;;
8060;SDS011;4073;42.626;25.386;2023-05-07T07:57:02;2.77;;;2.50;;
8060;SDS011;4073;42.626;25.386;2023-05-07T07:59:27;6.70;;;3.97;;
8060;SDS011;4073;42.626;25.386;2023-05-07T08:01:52;5.57;;;5.07;;
8060;SDS011;4073;42.626;25.386;2023-05-07T08:04:20;4.53;;;3.00;;
8060;SDS011;4073;42.626;25.386;2023-05-07T08:06:46;3.07;;;2.77;;
8060;SDS011;4073;42.626;25.386;2023-05-07T08:09:12;5.60;;;3.10;;
8060;SDS011;4073;42.626;25.386;2023-05-07T08:11:38;3.70;;;2.87;;
8060;SDS011;4073;42.626;25.386;2023-05-07T08:14:03;3.90;;;2.90;;
8060;SDS011;4073;42.626;25.386;2023-05-07T08:16:29;3.07;;;2.60;;
8060;SDS011;4073;42.626;25.386;2023-05-07T08:19:02;3.00;;;2.80;;
8060;SDS011;4073;42.626;25.386;2023-05-07T08:21:28;4.63;;;2.80;;
8060;SDS011;4073;42.626;25.386;2023-05-07T08:23:53;2.70;;;2.47;;
8060;SDS011;4073;42.626;25.386;2023-05-07T08:26:19;2.70;;;2.50;;
8060;SDS011;4073;42.626;25.386;2023-05-07T08:28:45;3.27;;;2.97;;
8060;SDS011;4073;42.626;25.386;2023-05-07T08:31:10;3.30;;;2.40;;
8060;SDS011;4073;42.626;25.386;2023-05-07T08:33:36;4.63;;;2.70;;
8060;SDS011;4073;42.626;25.386;2023-05-07T08:36:03;6.27;;;2.87;;
8060;SDS011;4073;42.626;25.386;2023-05-07T08:38:29;5.83;;;2.80;;
8060;SDS011;4073;42.626;25.386;2023-05-07T08:40:54;2.97;;;2.63;;
8060;SDS011;4073;42.626;25.386;2023-05-07T08:43:20;6.90;;;2.90;;
8060;SDS011;4073;42.626;25.386;2023-05-07T08:45:48;2.43;;;2.20;;
8060;SDS011;4073;42.626;25.386;2023-05-07T08:48:16;3.10;;;2.53;;
8060;SDS011;4073;42.626;25.386;2023-05-07T08:50:42;4.93;;;2.53;;
8060;SDS011;4073;42.626;25.386;2023-05-07T08:53:07;2.53;;;2.33;;
8060;SDS011;4073;42.626;25.386;2023-05-07T08:55:33;3.27;;;2.40;;
8060;SDS011;4073;42.626;25.386;2023-05-07T08:57:59;2.83;;;2.53;;
8060;SDS011;4073;42.626;25.386;2023-05-07T09:00:25;5.37;;;2.47;;
8060;SDS011;4073;42.626;25.386;2023-05-07T09:02:50;4.00;;;2.30;;
8060;SDS011;4073;42.626;25.386;2023-05-07T09:05:17;2.87;;;2.40;;
8060;SDS011;4073;42.626;25.386;2023-05-07T09:07:42;2.83;;;2.20;;
8060;SDS011;4073;42.626;25.386;2023-05-07T09:10:08;3.00;;;2.20;;
8060;SDS011;4073;42.626;25.386;2023-05-07T09:12:33;2.50;;;2.30;;
8060;SDS011;4073;42.626;25.386;2023-05-07T09:15:00;2.83;;;2.53;;
8060;SDS011;4073;42.626;25.386;2023-05-07T09:17:26;3.00;;;2.57;;
8060;SDS011;4073;42.626;25.386;2023-05-07T09:19:51;4.57;;;2.77;;
8060;SDS011;4073;42.626;25.386;2023-05-07T09:22:18;3.33;;;2.30;;
8060;SDS011;4073;42.626;25.386;2023-05-07T09:24:50;4.53;;;2.40;;
8060;SDS011;4073;42.626;25.386;2023-05-07T09:27:17;2.50;;;2.10;;
8060;SDS011;4073;42.626;25.386;2023-05-07T09:29:43;5.30;;;2.10;;
8060;SDS011;4073;42.626;25.386;2023-05-07T09:32:09;4.27;;;2.63;;
8060;SDS011;4073;42.626;25.386;2023-05-07T09:34:35;3.80;;;2.07;;
8060;SDS011;4073;42.626;25.386;2023-05-07T09:37:01;5.40;;;2.60;;
8060;SDS011;4073;42.626;25.386;2023-05-07T09:39:41;2.87;;;2.20;;
8060;SDS011;4073;42.626;25.386;2023-05-07T09:42:07;4.87;;;2.20;;
8060;SDS011;4073;42.626;25.386;2023-05-07T09:44:33;4.43;;;2.50;;
8060;SDS011;4073;42.626;25.386;2023-05-07T09:47:00;3.43;;;2.40;;
8060;SDS011;4073;42.626;25.386;2023-05-07T09:49:28;3.97;;;2.80;;
8060;SDS011;4073;42.626;25.386;2023-05-07T09:51:55;2.03;;;1.93;;
8060;SDS011;4073;42.626;25.386;2023-05-07T09:54:22;2.50;;;2.30;;
8060;SDS011;4073;42.626;25.386;2023-05-07T09:56:51;2.70;;;2.27;;
8060;SDS011;4073;42.626;25.386;2023-05-07T09:59:18;3.43;;;2.80;;
8060;SDS011;4073;42.626;25.386;2023-05-07T10:01:45;5.60;;;2.50;;
8060;SDS011;4073;42.626;25.386;2023-05-07T10:04:11;3.40;;;2.17;;
8060;SDS011;4073;42.626;25.386;2023-05-07T10:06:37;3.73;;;2.20;;
8060;SDS011;4073;42.626;25.386;2023-05-07T10:09:03;2.20;;;2.00;;
8060;SDS011;4073;42.626;25.386;2023-05-07T10:11:36;5.83;;;2.47;;
8060;SDS011;4073;42.626;25.386;2023-05-07T10:14:02;2.53;;;2.33;;
8060;SDS011;4073;42.626;25.386;2023-05-07T10:16:31;2.97;;;2.23;;
8060;SDS011;4073;42.626;25.386;2023-05-07T10:19:01;5.40;;;2.27;;
8060;SDS011;4073;42.626;25.386;2023-05-07T10:21:30;4.07;;;2.47;;
8060;SDS011;4073;42.626;25.386;2023-05-07T10:27:02;3.80;;;2.40;;
8060;SDS011;4073;42.626;25.386;2023-05-07T10:32:53;2.87;;;2.47;;
8060;SDS011;4073;42.626;25.386;2023-05-07T10:35:23;3.27;;;2.40;;
8060;SDS011;4073;42.626;25.386;2023-05-07T10:37:51;4.87;;;2.53;;
8060;SDS011;4073;42.626;25.386;2023-05-07T10:40:17;3.20;;;2.80;;
8060;SDS011;4073;42.626;25.386;2023-05-07T10:45:24;5.10;;;2.40;;
8060;SDS011;4073;42.626;25.386;2023-05-07T10:50:38;2.30;;;2.10;;
8060;SDS011;4073;42.626;25.386;2023-05-07T10:53:26;3.47;;;2.50;;
8060;SDS011;4073;42.626;25.386;2023-05-07T10:58:53;4.80;;;2.17;;
8060;SDS011;4073;42.626;25.386;2023-05-07T11:01:48;11.07;;;3.67;;
8060;SDS011;4073;42.626;25.386;2023-05-07T11:04:20;6.27;;;2.50;;
8060;SDS011;4073;42.626;25.386;2023-05-07T11:12:16;3.77;;;2.50;;
8060;SDS011;4073;42.626;25.386;2023-05-07T11:17:07;3.37;;;2.43;;
8060;SDS011;4073;42.626;25.386;2023-05-07T11:19:53;3.73;;;2.60;;
8060;SDS011;4073;42.626;25.386;2023-05-07T11:25:01;2.83;;;2.50;;
8060;SDS011;4073;42.626;25.386;2023-05-07T11:27:27;3.63;;;2.43;;
8060;SDS011;4073;42.626;25.386;2023-05-07T11:29:54;4.67;;;2.80;;
8060;SDS011;4073;42.626;25.386;2023-05-07T11:32:23;4.07;;;2.37;;
8060;SDS011;4073;42.626;25.386;2023-05-07T11:34:52;2.60;;;2.37;;
8060;SDS011;4073;42.626;25.386;2023-05-07T11:37:19;3.30;;;2.53;;
8060;SDS011;4073;42.626;25.386;2023-05-07T11:39:45;3.57;;;2.33;;
8060;SDS011;4073;42.626;25.386;2023-05-07T11:44:56;3.60;;;2.57;;
8060;SDS011;4073;42.626;25.386;2023-05-07T11:47:21;4.73;;;2.53;;
8060;SDS011;4073;42.626;25.386;2023-05-07T11:49:47;2.47;;;2.27;;
8060;SDS011;4073;42.626;25.386;2023-05-07T11:52:14;4.20;;;2.40;;
8060;SDS011;4073;42.626;25.386;2023-05-07T11:54:41;3.87;;;2.70;;
8060;SDS011;4073;42.626;25.386;2023-05-07T11:57:06;4.23;;;3.00;;
8060;SDS011;4073;42.626;25.386;2023-05-07T11:59:39;2.90;;;2.70;;
8060;SDS011;4073;42.626;25.386;2023-05-07T12:02:09;3.30;;;3.00;;
8060;SDS011;4073;42.626;25.386;2023-05-07T12:04:35;2.20;;;2.00;;
8060;SDS011;4073;42.626;25.386;2023-05-07T12:07:02;3.13;;;2.53;;
8060;SDS011;4073;42.626;25.386;2023-05-07T12:09:28;2.77;;;2.33;;
8060;SDS011;4073;42.626;25.386;2023-05-07T12:11:53;3.43;;;2.53;;
8060;SDS011;4073;42.626;25.386;2023-05-07T12:14:21;4.40;;;2.40;;
8060;SDS011;4073;42.626;25.386;2023-05-07T12:16:46;2.60;;;2.40;;
8060;SDS011;4073;42.626;25.386;2023-05-07T12:19:12;12.67;;;4.10;;
8060;SDS011;4073;42.626;25.386;2023-05-07T12:21:38;2.57;;;2.37;;
8060;SDS011;4073;42.626;25.386;2023-05-07T12:24:04;2.60;;;2.40;;
8060;SDS011;4073;42.626;25.386;2023-05-07T12:26:30;3.53;;;2.30;;
8060;SDS011;4073;42.626;25.386;2023-05-07T12:28:57;5.93;;;2.63;;
8060;SDS011;4073;42.626;25.386;2023-05-07T12:31:22;2.60;;;2.10;;
8060;SDS011;4073;42.626;25.386;2023-05-07T12:33:50;2.80;;;2.50;;
8060;SDS011;4073;42.626;25.386;2023-05-07T12:36:16;2.40;;;2.20;;
8060;SDS011;4073;42.626;25.386;2023-05-07T12:38:41;5.50;;;2.77;;
8060;SDS011;4073;42.626;25.386;2023-05-07T12:41:07;3.63;;;2.40;;
8060;SDS011;4073;42.626;25.386;2023-05-07T12:43:33;3.10;;;2.47;;
8060;SDS011;4073;42.626;25.386;2023-05-07T12:46:00;2.80;;;2.10;;
8060;SDS011;4073;42.626;25.386;2023-05-07T12:48:28;3.43;;;2.30;;
8060;SDS011;4073;42.626;25.386;2023-05-07T12:50:54;3.37;;;2.43;;
8060;SDS011;4073;42.626;25.386;2023-05-07T12:53:21;4.60;;;2.77;;
8060;SDS011;4073;42.626;25.386;2023-05-07T12:55:49;2.10;;;2.00;;
8060;SDS011;4073;42.626;25.386;2023-05-07T12:58:19;3.70;;;2.27;;
8060;SDS011;4073;42.626;25.386;2023-05-07T13:00:45;5.00;;;2.57;;
8060;SDS011;4073;42.626;25.386;2023-05-07T13:03:20;2.30;;;2.10;;
8060;SDS011;4073;42.626;25.386;2023-05-07T13:05:57;2.77;;;2.37;;
8060;SDS011;4073;42.626;25.386;2023-05-07T13:08:31;2.87;;;2.50;;
8060;SDS011;4073;42.626;25.386;2023-05-07T13:11:01;2.43;;;2.20;;
8060;SDS011;4073;42.626;25.386;2023-05-07T13:13:28;4.33;;;1.97;;
8060;SDS011;4073;42.626;25.386;2023-05-07T13:15:57;3.10;;;2.27;;
8060;SDS011;4073;42.626;25.386;2023-05-07T13:18:24;5.07;;;2.20;;
8060;SDS011;4073;42.626;25.386;2023-05-07T13:20:50;3.93;;;2.40;;
8060;SDS011;4073;42.626;25.386;2023-05-07T13:23:16;2.50;;;2.30;;
8060;SDS011;4073;42.626;25.386;2023-05-07T13:25:41;4.80;;;2.60;;
8060;SDS011;4073;42.626;25.386;2023-05-07T13:28:07;3.27;;;2.10;;
8060;SDS011;4073;42.626;25.386;2023-05-07T13:30:32;2.30;;;2.10;;
8060;SDS011;4073;42.626;25.386;2023-05-07T13:32:58;3.17;;;2.43;;
8060;SDS011;4073;42.626;25.386;2023-05-07T13:35:23;4.10;;;2.90;;
8060;SDS011;4073;42.626;25.386;2023-05-07T13:37:49;5.83;;;2.57;;
8060;SDS011;4073;42.626;25.386;2023-05-07T13:40:14;4.80;;;2.27;;
8060;SDS011;4073;42.626;25.386;2023-05-07T13:42:40;5.63;;;2.57;;
8060;SDS011;4073;42.626;25.386;2023-05-07T13:45:06;5.77;;;2.10;;
8060;SDS011;4073;42.626;25.386;2023-05-07T13:47:32;3.67;;;2.50;;
8060;SDS011;4073;42.626;25.386;2023-05-07T13:49:58;2.27;;;2.07;;
8060;SDS011;4073;42.626;25.386;2023-05-07T13:52:23;2.57;;;2.23;;
8060;SDS011;4073;42.626;25.386;2023-05-07T13:54:49;4.30;;;2.20;;
8060;SDS011;4073;42.626;25.386;2023-05-07T13:57:14;2.80;;;2.40;;
8060;SDS011;4073;42.626;25.386;2023-05-07T13:59:40;4.10;;;2.03;;
8060;SDS011;4073;42.626;25.386;2023-05-07T14:02:06;2.87;;;2.43;;
8060;SDS011;4073;42.626;25.386;2023-05-07T14:04:31;4.20;;;1.90;;
8060;SDS011;4073;42.626;25.386;2023-05-07T14:06:57;5.53;;;2.13;;
8060;SDS011;4073;42.626;25.386;2023-05-07T14:09:22;6.60;;;2.60;;
8060;SDS011;4073;42.626;25.386;2023-05-07T14:11:48;2.30;;;2.10;;
8060;SDS011;4073;42.626;25.386;2023-05-07T14:14:16;2.30;;;2.00;;
8060;SDS011;4073;42.626;25.386;2023-05-07T14:16:42;2.13;;;1.93;;
8060;SDS011;4073;42.626;25.386;2023-05-07T14:19:07;3.33;;;2.00;;
8060;SDS011;4073;42.626;25.386;2023-05-07T14:21:33;2.40;;;2.20;;
8060;SDS011;4073;42.626;25.386;2023-05-07T14:23:58;4.10;;;2.13;;
8060;SDS011;4073;42.626;25.386;2023-05-07T14:26:25;3.63;;;2.20;;
8060;SDS011;4073;42.626;25.386;2023-05-07T14:28:52;2.30;;;2.10;;
8060;SDS011;4073;42.626;25.386;2023-05-07T14:31:19;3.87;;;2.10;;
8060;SDS011;4073;42.626;25.386;2023-05-07T14:33:45;3.07;;;2.40;;
8060;SDS011;4073;42.626;25.386;2023-05-07T14:36:11;2.53;;;2.13;;
8060;SDS011;4073;42.626;25.386;2023-05-07T14:38:36;3.53;;;1.83;;
8060;SDS011;4073;42.626;25.386;2023-05-07T14:41:02;4.37;;;2.50;;
8060;SDS011;4073;42.626;25.386;2023-05-07T14:43:27;3.47;;;2.40;;
8060;SDS011;4073;42.626;25.386;2023-05-07T14:45:52;3.40;;;2.50;;
8060;SDS011;4073;42.626;25.386;2023-05-07T14:48:18;4.03;;;2.13;;
8060;SDS011;4073;42.626;25.386;2023-05-07T14:50:43;3.67;;;2.80;;
8060;SDS011;4073;42.626;25.386;2023-05-07T14:53:12;4.00;;;2.23;;
8060;SDS011;4073;42.626;25.386;2023-05-07T14:55:37;5.70;;;2.73;;
8060;SDS011;4073;42.626;25.386;2023-05-07T14:58:03;3.40;;;2.20;;
8060;SDS011;4073;42.626;25.386;2023-05-07T15:00:28;3.80;;;2.30;;
8060;SDS011;4073;42.626;25.386;2023-05-07T15:02:55;4.07;;;2.47;;
8060;SDS011;4073;42.626;25.386;2023-05-07T15:05:31;5.07;;;2.57;;
8060;SDS011;4073;42.626;25.386;2023-05-07T15:07:56;3.20;;;2.43;;
8060;SDS011;4073;42.626;25.386;2023-05-07T15:10:22;2.60;;;2.27;;
8060;SDS011;4073;42.626;25.386;2023-05-07T15:12:47;3.60;;;2.23;;
8060;SDS011;4073;42.626;25.386;2023-05-07T15:15:13;2.93;;;2.10;;
8060;SDS011;4073;42.626;25.386;2023-05-07T15:17:38;4.57;;;2.27;;
8060;SDS011;4073;42.626;25.386;2023-05-07T15:20:04;5.00;;;2.50;;
8060;SDS011;4073;42.626;25.386;2023-05-07T15:22:30;3.50;;;2.13;;
8060;SDS011;4073;42.626;25.386;2023-05-07T15:24:55;3.87;;;2.27;;